チューレ空軍基地の過去48時間の天気

チューレ空軍基地 (Thule A. B.)

現在時刻: 7/5 00:01 ADT (7/5 03:01 UTC) 以下の時間は現地時間です。

過去48時間のMETAR気象情報
時間 風向 風速(m/s) 視程 気温(℃) 湿度(%) 気圧(hPa) 天気現象
4 22:56 南西 2 10km以上 5.5 100 1005.1
4 21:56 西南西 2 10km以上 5.9 100 1005.4
4 20:56 西南西 2 10km以上 5.9 100 1005.8
4 19:56 南西 2 10km以上 5.8 100 1006.1
4 18:56 西南西 3 10km以上 6.4 100 1006.8
4 17:56 西南西 3 10km以上 7.2 100 1007.2
4 16:56 西南西 3 10km以上 6.9 100 1007.5
4 15:56 南西 4 10km以上 5.5 100 1007.9
4 14:56 南西 4 10km以上 7.6 100 1008.2
4 13:56 南西 3 10km以上 7.6 100 1008.5
4 12:56 南西 3 10km以上 7.5 100 1008.9
4 11:56 南西 3 10km以上 7.6 100 1009.5
4 10:56 西 2 10km以上 8.4 100 1009.9
4 09:56 南西 2 10km以上 7.8 100 1010.5
4 08:56 静穏 0 10km以上 7.5 100 1010.9
4 07:56 静穏 0 10km以上 6 100 1011.2
4 06:56 静穏 0 10km以上 6 - 1011.6
4 05:56 静穏 0 10km以上 4 - 1012.3
4 04:56 静穏 0 10km以上 3 - 1012.6
4 04:16 静穏 0 10km以上 3 - 1012.6
4 03:56 静穏 0 10km以上 2 - 1012.7
4 03:36 南西 2 6000m 2 - 1013 煙霧
4 03:16 南西 3 8000m 2 - 1013 煙霧
4 02:56 西南西 4 10km以上 2 - 1013
4 02:16 南西 2 10km以上 3 - 1012.6
4 01:56 西 2 10km以上 3 - 1012.6
4 00:56 静穏 0 10km以上 5 - 1012.6
3 23:56 南南西 2 10km以上 4 - 1012.9
3 23:43 静穏 0 10km以上 4 - 1012.9
3 23:29 南南西 2 10km以上 4 - 1012.9 弱い雨
3 23:18 南西 2 10km以上 4 - 1012.9
3 23:08 2 10km以上 5 100 1012.9
3 22:56 静穏 0 10km以上 4.8 100 1012.9 弱い雨
3 22:36 静穏 0 10km以上 5 100 1012.9 弱い雨
3 22:16 北北西 3 8000m 5 100 1012.9 弱い雨
3 21:56 北北西 4 8000m 5.2 100 1012.9 弱い雨
3 21:31 西 2 9000m 5 100 1012.9 弱い雨
3 21:21 静穏 0 10km以上 6 100 1012.9 弱い雨
3 21:11 静穏 0 10km以上 6 100 1012.9
3 20:57 北北西 2 10km以上 6 100 1012.9 弱い雨
3 20:40 北東 3 10km以上 6 100 1012.9 弱い雨
3 20:30 北東 6 10km以上 6 100 1012.9 弱い雨
3 20:23 東北東 5 10km以上 6 100 1012.9 弱い雨
3 20:13 7 10km以上 6 100 1012.9
3 20:06 6 10km以上 6 100 1012.6 弱い雨
3 18:56 9 10km以上 5.5 100 1012.6
3 18:36 東南東 10 10km以上 5 100 1012.6
3 18:26 東南東 11 10km以上 5 100 1012.6
3 18:06 12 10km以上 5 100 1012.6
3 17:47 11 10km以上 5 100 1012.6
3 17:33 10 10km以上 5 100 1012.9 弱い雨
3 16:56 9 10km以上 5.1 100 1013.3
3 15:56 9 10km以上 4.9 100 1013.6
3 14:56 8 10km以上 5.2 100 1014
3 14:06 東南東 9 10km以上 5 100 1014
3 13:56 東南東 10 10km以上 5.4 100 1014
3 13:42 東南東 9 10km以上 5 100 1014 弱い雨
3 12:56 東南東 9 10km以上 5.5 100 1014 弱い雨
3 11:56 東南東 10 10km以上 5.8 100 1014.3 弱い雨
3 10:56 東北東 8 10km以上 6.2 100 1015.3
3 09:56 東南東 9 10km以上 6.5 100 1015.3
3 08:56 東南東 12 10km以上 6.4 100 1015.3
3 07:56 東南東 8 10km以上 6.4 100 1018
3 06:56 東南東 10 10km以上 6 100 1015.9
3 06:11 東南東 10 10km以上 6 100 1016.3
3 05:56 東南東 12 10km以上 5.9 100 1016
3 05:32 10 10km以上 6 100 1016.3
3 05:22 東南東 10 10km以上 6 100 1016.3 弱い雨
3 04:56 東南東 10 10km以上 6 100 1016.3
3 03:56 東南東 10 10km以上 6 100 1016.3
3 02:56 東南東 10 10km以上 5.8 100 1016.6
3 01:56 東北東 3 10km以上 4.5 100 1017.3
3 00:56 西南西 2 10km以上 2.7 100 1017.7
BGTL 050156Z AUTO 23003KT 9999 CLR 06/06 A2973 RMK AO2 SLP051 T00550055 TSNO $
BGTL 050056Z AUTO 24003KT 9999 CLR 06/06 A2974 RMK AO2 SLP054 T00590059 TSNO $
BGTL 042356Z AUTO 24004KT 9999 CLR 06/06 A2975 RMK AO2 SLP058 T00590059 10075 20055 57014 TSNO $
BGTL 042256Z AUTO 23004KT 9999 CLR 06/06 A2976 RMK AO2 SLP061 T00580058 TSNO $
BGTL 042156Z AUTO 25005KT 9999 CLR 06/06 A2978 RMK AO2 SLP068 T00640064 TSNO $
BGTL 042056Z AUTO 24005KT 9999 CLR 07/07 A2979 RMK AO2 SLP072 T00720072 57008 TSNO $
BGTL 041956Z AUTO 24005KT 9999 CLR 07/07 A2980 RMK AO2 SLP075 T00690069 TSNO $
BGTL 041856Z AUTO 23007KT 9999 CLR 06/06 A2981 RMK AO2 SLP079 T00550055 TSNO $
BGTL 041756Z AUTO 22007KT 9999 CLR 08/08 A2982 RMK AO2 SLP082 T00760076 10086 20069 57015 TSNO $
BGTL 041656Z AUTO 23005KT 9999 CLR 08/08 A2983 RMK AO2 SLP085 T00760076 TSNO $
BGTL 041556Z AUTO 23005KT 9999 CLR 08/08 A2984 RMK AO2 SLP089 T00750075 TSNO $
BGTL 041456Z AUTO 23005KT 9999 CLR 08/08 A2986 RMK AO2 SLP095 T00760076 57015 TSNO $
BGTL 041356Z AUTO 27004KT 9999 CLR 08/08 A2987 RMK AO2 SLP099 T00840084 TSNO $
BGTL 041256Z AUTO 23003KT 9999 CLR 08/08 A2989 RMK AO2 SLP105 T00780078 TSNO $
BGTL 041156Z AUTO 00000KT 9999 CLR 08/08 A2990 RMK AO2 SLP109 70035 T00750075 10075 20022 TSNO $
BGTL 041056Z AUTO 00000KT 9999 CLR 06/06 A2991 RMK AO2 SLP112 T00600060 TSNO $
BGTL 040956Z AUTO 00000KT 9999 CLR 06/ A2992 RMK AO2 SLP116 TSNO $
BGTL 040856Z AUTO 00000KT 9999 CLR 04/ A2994 RMK AO2 SLP123 58007 TSNO $
BGTL 040756Z AUTO 00000KT 9999 SCT002 BKN031 03/ A2995 RMK AO2 SLP126 TSNO $
BGTL 040716Z AUTO 00000KT 9999 OVC003 03/ A2995 RMK AO2 CIG 002 RWY26 SLP126 TSNO $
BGTL 040656Z AUTO 00000KT 9999 OVC002 02/ A2995 RMK AO2 SLP127 TSNO $
BGTL 040636Z AUTO 23003KT 6000 HZ OVC001 02/ A2996 RMK AO2 VIS 1000 RWY26 OVC V BKN SLP130 TSNO $
BGTL 040616Z AUTO 23005KT 8000 HZ BKN001 OVC026 02/ A2996 RMK AO2 CIG 001V026 SLP130 TSNO $
BGTL 040556Z AUTO 24007KT 9999 OVC026 02/ A2996 RMK AO2 SLP130 60020 10058 20024 53001 TSNO $
BGTL 040516Z AUTO 23004KT 9999 BKN026 03/ A2995 RMK AO2 BKN V SCT CIG 025 RWY26 SLP126 TSNO $
BGTL 040456Z AUTO 26004KT 9999 BKN025 03/ A2995 RMK AO2 CIG 024 RWY26 SLP126 TSNO $
BGTL 040356Z AUTO 00000KT 9999 FEW023 05/ A2995 RMK AO2 SLP126 P0001 400660025 TSNO $
BGTL 040256Z AUTO 20003KT 9999 FEW022 04/ A2996 RMK AO2 RAE0158RAB29E43 SLP129 P0004 60019 55001 TSNO $
BGTL 040243Z AUTO 00000KT 9999 FEW023 04/ A2996 RMK AO2 RAE0158RAB29E43 SLP129 TSNO $
BGTL 040229Z AUTO 21003KT 9999 -RA FEW023 04/ A2996 RMK AO2 RAE0158RAB29 SLP129 TSNO $
BGTL 040218Z AUTO 22003KT 9999 SCT019 04/ A2996 RMK AO2 RAE0158 SLP129 TSNO $
BGTL 040208Z AUTO 19004KT 9999 BKN018 05/05 A2996 RMK AO2 RAE0158 CIG 014V018 CIG 014 RWY26 SLP129 TSNO $
BGTL 040156Z AUTO 00000KT 9999 -RA BKN014 BKN020 05/05 A2996 RMK AO2 CIG 013 RWY26 SLP129 P0009 T00480048 TSNO $
BGTL 040136Z AUTO 00000KT 9999 -RA OVC017 05/05 A2996 RMK AO2 CIG 017V021 CIG 003 RWY26 SLP129 TSNO $
BGTL 040116Z AUTO 33006KT 8000 -RA OVC021 05/05 A2996 RMK AO2 CIG 003 RWY26 SLP129 TSNO $
BGTL 040056Z AUTO 34007KT 8000 -RA OVC019 05/05 A2996 RMK AO2 RAB2356E07RAB21 CIG 003 RWY26 SLP129 P0006 T00520052 TSNO $
BGTL 040031Z AUTO 26004KT 9000 -RA BKN016 BKN024 05/05 A2996 RMK AO2 RAB2356E07RAB21 CIG 016V022 CIG 008 RWY26 SLP129 TSNO $
BGTL 040021Z AUTO 00000KT 9999 -RA FEW012 SCT023 06/06 A2996 RMK AO2 RAB2356E07RAB21 SLP129 TSNO $
BGTL 040011Z AUTO 00000KT 9999 FEW010 FEW024 06/06 A2996 RMK AO2 RAB2356E07 SLP129 TSNO $
BGTL 032357Z AUTO 33004KT 9999 -RA SCT014 06/06 A2996 RMK AO2 RAB56 SLP129 TSNO $
BGTL 032340Z AUTO 05005KT 9999 -RA BKN012 06/06 A2996 RMK AO2 RAE13RAB23 SLP129 TSNO $
BGTL 032330Z AUTO 04011KT 9999 -RA BKN015 OVC038 06/06 A2996 RMK AO2 WSHFT 27 RAE13RAB23 CIG 011 RWY26 SLP129 TSNO $
BGTL 032323Z AUTO 07010KT 9999 -RA BKN017 BKN025 BKN037 06/06 A2996 RMK AO2 RAE13RAB23 CIG 017V025 CIG 005 RWY26 SLP129 TSNO $
BGTL 032313Z AUTO 09013KT 9999 SCT018 BKN025 BKN036 06/06 A2996 RMK AO2 RAE13 CIG 018V025 CIG 006 RWY26 SLP129 TSNO $
BGTL 032306Z AUTO 09012KT 9999 -RA BKN018 BKN025 BKN036 06/06 A2995 RMK AO2 CIG 018V025 CIG 007 RWY26 SLP126 TSNO $
BGTL 032156Z AUTO 09018KT 9999 SCT028 OVC043 06/06 A2995 RMK AO2 PK WND 11028/05 SLP126 T00550055 TSNO $
BGTL 032136Z AUTO 11020G26KT 9999 BKN030 BKN046 05/05 A2995 RMK AO2 SLP126 TSNO $
BGTL 032126Z AUTO 11021KT 9999 BKN029 OVC041 05/05 A2995 RMK AO2 BKN V OVC SLP126 TSNO $
BGTL 032106Z AUTO 10023G28KT 9999 BKN030 OVC041 05/05 A2995 RMK AO2 SLP126 TSNO $
BGTL 032047Z AUTO 10021KT 9999 BKN028 05/05 A2995 RMK AO2 RAB33E47 SLP126 TSNO $
BGTL 032033Z AUTO 10019KT 9999 -RA FEW027 05/05 A2996 RMK AO2 RAB33 SLP129 TSNO $
BGTL 031956Z AUTO 10017G23KT 9999 CLR 05/05 A2997 RMK AO2 SLP133 T00510051 TSNO $
BGTL 031856Z AUTO 08017KT 9999 CLR 05/05 A2998 RMK AO2 SLP136 T00490049 TSNO $
BGTL 031756Z AUTO 10016KT 9999 SCT023 05/05 A2999 RMK AO2 PK WND 10026/33 SLP140 P0001 60011 T00520052 10066 20052 57004 TSNO $
BGTL 031706Z AUTO 11017KT 9999 FEW008 SCT015 OVC029 05/05 A2999 RMK AO2 CIG 014V029 CIG 019 RWY26 SLP140 TSNO $
BGTL 031656Z AUTO 11020KT 9999 FEW008 BKN014 OVC029 05/05 A2999 RMK AO2 RAE47 CIG 003 RWY26 SLP140 P0005 T00540054 TSNO $
BGTL 031642Z AUTO 12018KT 9999 -RA FEW008 SCT013 05/05 A2999 RMK AO2 SLP140 TSNO $
BGTL 031556Z AUTO 11017KT 9999 -RA OVC036 06/06 A2999 RMK AO2 PK WND 12026/18 SLP140 P0005 T00550055 TSNO $
BGTL 031456Z AUTO 11020KT 9999 -RA OVC039 06/06 A3000 RMK AO2 RAB48 SLP143 P0000 60000 T00580058 58008 TSNO $
BGTL 031356Z AUTO 07015G20KT 9999 OVC049 06/06 A3003 RMK AO2 SLP153 T00620062 TSNO $
BGTL 031256Z AUTO 11018KT 9999 OVC055 07/07 A3003 RMK AO2 PK WND 12028/12 SLP153 T00650065 TSNO $
BGTL 031156Z AUTO 12024KT 9999 CLR 06/06 A3003 RMK AO2 PK WND 12027/50 SLP153 60000 T00640064 10065 20057 55009 TSNO $
BGTL 031056Z AUTO 12016KT 9999 OVC049 06/06 A3005 RMK AO2 SLPNO T00640064 TSNO $
BGTL 030956Z AUTO 12020KT 9999 FEW034 OVC044 06/06 A3005 RMK AO2 SLP159 T00600060 TSNO $
BGTL 030911Z AUTO 11019KT 9999 FEW011 FEW033 BKN043 06/06 A3006 RMK AO2 SLP163 TSNO $
BGTL 030856Z AUTO 12024KT 9999 BKN044 06/06 A3005 RMK AO2 PK WND 12027/47 RAB22E32 SLP160 P0000 60000 T00590059 58003 TSNO $
BGTL 030832Z AUTO 10020KT 9999 FEW028 FEW038 SCT047 06/06 A3006 RMK AO2 RAB22E32 SLP163 TSNO $
BGTL 030822Z AUTO 11020KT 9999 -RA FEW028 FEW039 SCT049 06/06 A3006 RMK AO2 RAB22 SLP163 TSNO $
BGTL 030756Z AUTO 12019KT 9999 BKN047 06/06 A3006 RMK AO2 SLP163 T00600060 TSNO $
BGTL 030656Z AUTO 11020KT 9999 OVC043 06/06 A3006 RMK AO2 PK WND 11026/38 SLP163 T00600060 TSNO $
BGTL 030556Z AUTO 11020KT 9999 BKN045 OVC055 06/06 A3007 RMK AO2 PK WND 12027/52 SLP166 T00580058 10073 20023 58012 TSNO $
BGTL 030456Z AUTO 06006KT 9999 OVC045 05/05 A3009 RMK AO2 SLP173 T00450045 TSNO $
BGTL 030356Z AUTO 24003KT 9999 OVC036 03/03 A3010 RMK AO2 SLP177 T00270027 400870023 TSNO $